createdAt,value
2023-04-14T00:00:19.626Z,81.22
2023-04-14T00:01:19.711Z,82.47
2023-04-14T00:02:19.801Z,77.73
2023-04-14T00:03:19.960Z,78.40
2023-04-14T00:04:20.233Z,81.87
2023-04-14T00:05:19.899Z,79.13
2023-04-14T00:06:19.928Z,79.11
2023-04-14T00:07:19.933Z,81.39
2023-04-14T00:08:20.011Z,81.43
2023-04-14T00:09:20.104Z,80.01
2023-04-14T00:10:20.097Z,80.08
2023-04-14T00:11:20.176Z,80.86
2023-04-14T00:12:20.229Z,79.52
2023-04-14T00:13:20.300Z,77.05
2023-04-14T00:14:20.307Z,81.78
2023-04-14T00:15:20.318Z,80.51
2023-04-14T00:16:20.409Z,80.62
2023-04-14T00:17:20.500Z,80.85
2023-04-14T00:18:20.467Z,81.66
2023-04-14T00:19:20.536Z,83.24
2023-04-14T00:20:20.537Z,82.37
2023-04-14T00:21:20.589Z,81.40
2023-04-14T00:22:20.652Z,82.85
2023-04-14T00:23:20.693Z,78.79
2023-04-14T00:24:20.771Z,79.97
2023-04-14T00:25:20.820Z,81.18
2023-04-14T00:26:20.910Z,80.74
2023-04-14T00:27:20.935Z,81.89
2023-04-14T00:28:20.957Z,81.19
2023-04-14T00:29:21.010Z,81.50
2023-04-14T00:30:21.058Z,79.76
2023-04-14T00:31:21.156Z,79.65
2023-04-14T00:32:21.207Z,81.22
2023-04-14T00:33:21.183Z,80.98
2023-04-14T00:34:21.252Z,80.51
2023-04-14T00:35:21.300Z,80.73
2023-04-14T00:36:21.327Z,78.71
2023-04-14T00:37:21.373Z,81.26
2023-04-14T00:38:21.418Z,80.33
2023-04-14T00:39:21.897Z,79.39
2023-04-14T00:40:21.500Z,77.18
2023-04-14T00:41:21.603Z,80.92
2023-04-14T00:42:21.616Z,80.51
2023-04-14T00:43:21.692Z,83.78
2023-04-14T00:44:21.733Z,79.49
2023-04-14T00:45:21.798Z,82.67
2023-04-14T00:46:21.860Z,80.79
2023-04-14T00:47:21.917Z,79.40
2023-04-14T00:48:21.901Z,80.59
2023-04-14T00:49:21.933Z,80.90
2023-04-14T00:50:22.034Z,81.51
2023-04-14T00:51:22.048Z,79.96
2023-04-14T00:52:22.089Z,80.39
2023-04-14T00:53:22.129Z,78.72
2023-04-14T00:54:22.427Z,82.53
2023-04-14T00:55:22.300Z,78.90
2023-04-14T00:56:22.276Z,79.80
2023-04-14T00:57:22.337Z,83.08
2023-04-14T00:58:22.340Z,80.11
2023-04-14T00:59:22.441Z,80.51
2023-04-14T01:00:22.476Z,83.10
2023-04-14T01:01:22.542Z,81.11
2023-04-14T01:02:22.691Z,80.89
2023-04-14T01:03:22.742Z,80.32
2023-04-14T01:04:22.745Z,79.14
2023-04-14T01:05:22.798Z,79.67
2023-04-14T01:06:22.759Z,79.38
2023-04-14T01:07:22.832Z,78.42
2023-04-14T01:08:22.814Z,80.44
2023-04-14T01:09:22.932Z,81.30
2023-04-14T01:10:22.939Z,81.68
2023-04-14T01:11:22.986Z,81.02
2023-04-14T01:12:23.019Z,80.34
2023-04-14T01:13:23.089Z,77.22
2023-04-14T01:14:23.163Z,80.22
2023-04-14T01:15:23.176Z,83.70
2023-04-14T01:16:23.311Z,78.95
2023-04-14T01:17:23.325Z,79.02
2023-04-14T01:18:23.331Z,80.06
2023-04-14T01:19:23.402Z,80.46
2023-04-14T01:20:23.465Z,80.04
2023-04-14T01:21:23.529Z,79.90
2023-04-14T01:22:23.523Z,79.83
2023-04-14T01:23:23.636Z,80.71
2023-04-14T01:24:23.644Z,81.21
2023-04-14T01:25:23.678Z,80.82
2023-04-14T01:26:23.721Z,79.77
2023-04-14T01:27:23.760Z,79.96
2023-04-14T01:28:23.817Z,80.14
2023-04-14T01:29:23.876Z,81.83
2023-04-14T01:30:23.930Z,82.07
2023-04-14T01:31:24.003Z,79.91
2023-04-14T01:32:24.013Z,81.25
2023-04-14T01:33:24.053Z,82.32
2023-04-14T01:34:24.121Z,80.95
2023-04-14T01:35:24.126Z,85.03
2023-04-14T01:36:24.177Z,79.94
2023-04-14T01:37:24.241Z,80.19
2023-04-14T01:38:24.289Z,81.80
2023-04-14T01:39:24.365Z,84.03
2023-04-14T01:40:24.368Z,84.14
2023-04-14T01:41:24.420Z,81.22
2023-04-14T01:42:24.446Z,79.57
2023-04-14T01:43:24.486Z,83.43
2023-04-14T01:44:24.599Z,82.49
2023-04-14T01:45:24.629Z,83.21
2023-04-14T01:46:24.650Z,81.22
2023-04-14T01:47:24.754Z,80.72
2023-04-14T01:48:24.735Z,82.17
2023-04-14T01:49:24.831Z,82.66
2023-04-14T01:50:24.853Z,79.96
2023-04-14T01:51:24.890Z,82.17
2023-04-14T01:52:24.956Z,79.37
2023-04-14T01:53:24.966Z,82.47
2023-04-14T01:54:25.006Z,84.10
2023-04-14T01:55:25.095Z,85.85
2023-04-14T01:56:25.134Z,82.92
2023-04-14T01:57:25.163Z,83.14
2023-04-14T01:58:25.212Z,81.07
2023-04-14T01:59:25.249Z,84.46
2023-04-14T02:00:25.256Z,81.74
2023-04-14T02:01:25.306Z,81.89
2023-04-14T02:02:25.448Z,79.23
2023-04-14T02:03:25.474Z,78.08
2023-04-14T02:04:25.451Z,80.97
2023-04-14T02:05:25.553Z,78.97
2023-04-14T02:06:25.512Z,81.37
2023-04-14T02:07:25.623Z,80.58
2023-04-14T02:08:25.634Z,81.91
2023-04-14T02:09:25.690Z,81.15
2023-04-14T02:10:25.715Z,83.71
2023-04-14T02:11:25.712Z,81.15
2023-04-14T02:12:25.793Z,80.95
2023-04-14T02:13:25.814Z,81.45
2023-04-14T02:14:25.862Z,81.51
2023-04-14T02:15:25.937Z,82.85
2023-04-14T02:16:26.053Z,84.94
2023-04-14T02:17:26.100Z,83.71
2023-04-14T02:18:26.052Z,83.89
2023-04-14T02:19:26.177Z,82.67
2023-04-14T02:20:26.170Z,85.35
2023-04-14T02:21:26.204Z,80.51
2023-04-14T02:22:26.244Z,82.27
2023-04-14T02:23:26.349Z,83.76
2023-04-14T02:24:26.343Z,83.80
2023-04-14T02:25:26.416Z,82.94
2023-04-14T02:26:26.443Z,81.98
2023-04-14T02:27:26.460Z,80.51
2023-04-14T02:28:26.534Z,81.68
2023-04-14T02:29:26.609Z,80.51
2023-04-14T02:30:26.590Z,81.22
2023-04-14T02:31:26.534Z,83.13
2023-04-14T02:32:26.584Z,85.25
2023-04-14T02:33:26.655Z,83.47
2023-04-14T02:34:26.760Z,84.32
2023-04-14T02:35:26.721Z,81.52
2023-04-14T02:36:26.745Z,85.20
2023-04-14T02:37:26.926Z,86.19
2023-04-14T02:38:26.837Z,81.61
2023-04-14T02:39:26.942Z,83.51
2023-04-14T02:40:26.974Z,82.59
2023-04-14T02:41:27.033Z,82.63
2023-04-14T02:42:27.075Z,86.82
2023-04-14T02:43:27.252Z,82.22
2023-04-14T02:44:27.144Z,83.94
2023-04-14T02:45:27.406Z,80.85
2023-04-14T02:46:27.366Z,81.68
2023-04-14T02:47:27.461Z,82.93
2023-04-14T02:48:27.414Z,79.71
2023-04-14T02:49:27.430Z,83.06
2023-04-14T02:50:27.504Z,82.05
2023-04-14T02:51:27.588Z,83.97
2023-04-14T02:52:27.615Z,79.29
2023-04-14T02:53:27.651Z,79.78
2023-04-14T02:54:27.738Z,82.42
2023-04-14T02:55:27.812Z,80.77
2023-04-14T02:56:27.809Z,81.88
2023-04-14T02:57:27.894Z,81.09
2023-04-14T02:58:27.892Z,82.15
2023-04-14T02:59:27.942Z,79.88
2023-04-14T03:00:27.994Z,79.35
2023-04-14T03:01:28.080Z,78.78
2023-04-14T03:02:28.148Z,80.51
2023-04-14T03:03:28.128Z,80.54
2023-04-14T03:04:28.132Z,79.34
2023-04-14T03:05:28.168Z,81.26
2023-04-14T03:06:28.176Z,79.93
2023-04-14T03:07:28.229Z,79.27
2023-04-14T03:08:28.207Z,80.14
2023-04-14T03:09:28.255Z,76.86
2023-04-14T03:10:28.306Z,79.94
2023-04-14T03:11:28.366Z,80.11
2023-04-14T03:12:28.410Z,81.80
2023-04-14T03:13:28.505Z,79.11
2023-04-14T03:14:28.484Z,79.18
2023-04-14T03:15:28.564Z,80.69
2023-04-14T03:16:28.699Z,79.92
2023-04-14T03:17:28.677Z,81.31
2023-04-14T03:18:28.677Z,79.63
2023-04-14T03:19:28.748Z,83.01
2023-04-14T03:20:28.775Z,81.76
2023-04-14T03:21:28.841Z,79.52
2023-04-14T03:22:28.895Z,80.50
2023-04-14T03:23:28.961Z,82.61
2023-04-14T03:24:29.008Z,80.82
2023-04-14T03:25:29.100Z,82.88
2023-04-14T03:26:29.122Z,80.76
2023-04-14T03:27:29.194Z,81.49
2023-04-14T03:28:29.229Z,82.21
2023-04-14T03:29:29.304Z,82.80
2023-04-14T03:30:29.355Z,80.85
2023-04-14T03:31:29.948Z,83.51
2023-04-14T03:32:29.515Z,82.48
2023-04-14T03:33:29.530Z,82.04
2023-04-14T03:34:29.546Z,82.10
2023-04-14T03:35:29.606Z,83.29
2023-04-14T03:36:29.652Z,81.75
2023-04-14T03:37:29.771Z,81.12
2023-04-14T03:38:29.787Z,83.06
2023-04-14T03:39:29.820Z,79.74
2023-04-14T03:40:29.889Z,78.38
2023-04-14T03:41:30.122Z,78.73
2023-04-14T03:42:30.045Z,80.48
2023-04-14T03:43:30.080Z,80.17
2023-04-14T03:44:30.086Z,81.31
2023-04-14T03:45:30.220Z,79.81
2023-04-14T03:46:30.250Z,82.35
2023-04-14T03:47:30.268Z,81.94
2023-04-14T03:48:30.360Z,80.60
2023-04-14T03:49:30.367Z,83.94
2023-04-14T03:50:30.437Z,81.07
2023-04-14T03:51:30.499Z,81.83
2023-04-14T03:52:30.510Z,81.65
2023-04-14T03:53:30.584Z,81.04
2023-04-14T03:54:30.637Z,81.18
2023-04-14T03:55:30.673Z,78.93
2023-04-14T03:56:30.637Z,79.37
2023-04-14T03:57:30.654Z,81.32
2023-04-14T03:58:30.730Z,83.65
2023-04-14T03:59:30.678Z,80.09
2023-04-14T04:00:30.772Z,83.21
2023-04-14T04:01:30.799Z,78.45
2023-04-14T04:02:31.065Z,79.52
2023-04-14T04:03:31.064Z,83.35
2023-04-14T04:04:31.049Z,83.27
2023-04-14T04:05:31.033Z,83.64
2023-04-14T04:06:31.107Z,82.01
2023-04-14T04:07:31.122Z,71.34
2023-04-14T04:08:31.269Z,69.16
2023-04-14T04:09:31.277Z,61.06
2023-04-14T04:10:31.323Z,51.88
2023-04-14T04:11:31.400Z,46.53
2023-04-14T04:12:31.433Z,42.82
2023-04-14T04:13:31.545Z,34.02
2023-04-14T04:14:31.549Z,26.35
2023-04-14T04:15:31.669Z,25.00
2023-04-14T04:16:31.733Z,26.69
2023-04-14T04:17:31.882Z,25.32
2023-04-14T04:18:31.875Z,29.69
2023-04-14T04:19:31.921Z,26.45
2023-04-14T04:20:31.930Z,26.38
2023-04-14T04:21:32.033Z,28.76
2023-04-14T04:22:32.084Z,25.00
2023-04-14T04:23:32.145Z,25.57
2023-04-14T04:24:32.253Z,25.00
2023-04-14T04:25:32.267Z,25.74
2023-04-14T04:26:32.785Z,29.01
2023-04-14T04:27:32.386Z,22.98
2023-04-14T04:28:32.408Z,25.00
2023-04-14T04:29:32.504Z,30.59
2023-04-14T04:30:32.523Z,25.00
2023-04-14T04:31:32.641Z,26.30
2023-04-14T04:32:32.784Z,25.00
2023-04-14T04:33:32.725Z,33.59
2023-04-14T04:34:32.827Z,31.60
2023-04-14T04:35:32.870Z,50.72
2023-04-14T04:36:32.824Z,50.86
2023-04-14T04:37:32.902Z,55.90
2023-04-14T04:38:32.973Z,55.24
2023-04-14T04:39:32.989Z,54.49
2023-04-14T04:40:33.115Z,59.45
2023-04-14T04:41:33.176Z,67.53
2023-04-14T04:42:33.212Z,71.86
2023-04-14T04:43:33.290Z,67.25
2023-04-14T04:44:33.334Z,65.66
2023-04-14T04:45:33.418Z,68.72
2023-04-14T04:46:33.444Z,71.08
2023-04-14T04:47:33.545Z,78.81
2023-04-14T04:48:33.560Z,80.51
2023-04-14T04:49:33.690Z,79.12
2023-04-14T04:50:33.726Z,83.62
2023-04-14T04:51:33.794Z,82.88
2023-04-14T04:52:33.802Z,86.46
2023-04-14T04:53:33.904Z,82.90
2023-04-14T04:54:33.961Z,88.09
2023-04-14T04:55:33.945Z,84.40
2023-04-14T04:56:34.013Z,89.14
2023-04-14T04:57:33.964Z,88.37
2023-04-14T04:58:34.134Z,88.35
2023-04-14T04:59:35.086Z,93.03
2023-04-14T05:00:34.228Z,89.27
2023-04-14T05:01:34.255Z,93.92
2023-04-14T05:02:34.395Z,96.56
2023-04-14T05:03:34.461Z,94.39
2023-04-14T05:04:34.402Z,95.72
2023-04-14T05:05:34.330Z,98.43
2023-04-14T05:06:34.372Z,99.13
2023-04-14T05:07:34.344Z,97.91
2023-04-14T05:08:34.353Z,99.15
2023-04-14T05:09:34.330Z,101.60
2023-04-14T05:10:34.376Z,98.67
2023-04-14T05:11:34.316Z,100.96
2023-04-14T05:12:34.378Z,102.99
2023-04-14T05:13:34.487Z,103.49
2023-04-14T05:14:34.530Z,102.92
2023-04-14T05:15:34.586Z,106.63
2023-04-14T05:16:34.664Z,104.57
2023-04-14T05:17:34.695Z,107.93
2023-04-14T05:18:35.035Z,110.25
2023-04-14T05:19:34.990Z,114.93
2023-04-14T05:20:35.182Z,115.10
2023-04-14T05:21:34.936Z,117.57
2023-04-14T05:22:35.012Z,120.38
2023-04-14T05:23:35.069Z,118.90
2023-04-14T05:24:35.131Z,125.96
2023-04-14T05:25:35.179Z,124.89
2023-04-14T05:26:48.698Z,127.07
2023-04-14T05:27:36.318Z,127.37
2023-04-14T05:28:35.304Z,127.93
2023-04-14T05:29:35.202Z,129.93
2023-04-14T05:30:35.163Z,134.09
2023-04-14T05:31:35.220Z,136.72
2023-04-14T05:32:35.764Z,140.52
2023-04-14T05:33:35.205Z,140.59
2023-04-14T05:34:35.130Z,145.89
2023-04-14T05:35:35.246Z,143.29
2023-04-14T05:36:35.212Z,135.00
2023-04-14T05:37:36.369Z,136.51
2023-04-14T05:38:35.123Z,125.22
2023-04-14T05:39:35.123Z,115.86
2023-04-14T05:40:35.176Z,117.77
2023-04-14T05:41:35.238Z,121.71
2023-04-14T05:42:35.263Z,119.06
2023-04-14T05:43:35.268Z,115.32
2023-04-14T05:44:35.513Z,110.20
2023-04-14T05:45:35.377Z,117.11
2023-04-14T05:46:35.653Z,117.26
2023-04-14T05:47:35.771Z,118.52
2023-04-14T05:48:35.498Z,121.50
2023-04-14T05:49:36.011Z,123.25
2023-04-14T05:50:35.608Z,121.93
2023-04-14T05:51:36.588Z,127.89
2023-04-14T05:52:35.849Z,124.72
2023-04-14T05:53:35.641Z,129.60
2023-04-14T05:54:35.641Z,132.79
2023-04-14T05:55:35.651Z,132.30
2023-04-14T05:56:35.706Z,134.88
2023-04-14T05:57:35.623Z,136.25
2023-04-14T05:58:35.674Z,138.78
2023-04-14T05:59:36.704Z,142.79
2023-04-14T06:00:35.687Z,148.73
2023-04-14T06:01:35.772Z,151.81
2023-04-14T06:02:35.934Z,154.77
2023-04-14T06:03:39.524Z,154.15
2023-04-14T06:04:36.095Z,154.28
2023-04-14T06:05:35.878Z,154.31
2023-04-14T06:06:35.928Z,156.05
2023-04-14T06:07:37.574Z,157.56
2023-04-14T06:08:35.940Z,159.53
2023-04-14T06:09:35.846Z,163.63
2023-04-14T06:10:35.777Z,161.17
2023-04-14T06:11:35.871Z,166.82
2023-04-14T06:12:36.058Z,168.50
2023-04-14T06:13:36.603Z,170.36
2023-04-14T06:14:36.539Z,172.50
2023-04-14T06:15:35.767Z,175.22
2023-04-14T06:16:36.034Z,172.55
2023-04-14T06:17:35.793Z,177.61
2023-04-14T06:18:35.803Z,182.62
2023-04-14T06:19:36.021Z,181.47
2023-04-14T06:20:35.859Z,184.70
2023-04-14T06:21:35.988Z,185.67
2023-04-14T06:22:36.039Z,183.75
2023-04-14T06:23:36.261Z,188.70
2023-04-14T06:24:36.042Z,188.03
2023-04-14T06:25:36.188Z,192.50
2023-04-14T06:26:36.182Z,191.13
2023-04-14T06:27:36.200Z,190.43
2023-04-14T06:28:36.275Z,192.34
2023-04-14T06:29:36.524Z,195.29
2023-04-14T06:30:36.399Z,199.93
2023-04-14T06:31:36.472Z,201.54
2023-04-14T06:32:36.551Z,190.02
2023-04-14T06:33:36.562Z,181.11
2023-04-14T06:34:36.565Z,172.85
2023-04-14T06:35:36.566Z,168.87
2023-04-14T06:36:36.646Z,165.44
2023-04-14T06:37:36.552Z,157.29
2023-04-14T06:38:37.281Z,159.35
2023-04-14T06:39:37.087Z,152.36
2023-04-14T06:40:37.050Z,155.94
2023-04-14T06:41:36.568Z,153.39
2023-04-14T06:42:37.056Z,157.25
2023-04-14T06:43:36.705Z,157.10
2023-04-14T06:44:36.751Z,156.92
2023-04-14T06:46:56.931Z,25.00
2023-04-14T06:47:55.784Z,25.00
2023-04-14T06:48:55.667Z,25.00
2023-04-14T06:49:55.627Z,25.00
2023-04-14T06:50:55.578Z,25.00
2023-04-14T06:51:55.584Z,28.65
2023-04-14T06:52:55.783Z,25.71
2023-04-14T06:53:55.552Z,28.95
2023-04-14T06:54:55.560Z,25.26
2023-04-14T06:55:55.542Z,26.65
2023-04-14T06:56:55.519Z,30.07
2023-04-14T06:57:55.855Z,28.47
2023-04-14T06:58:55.607Z,30.23
2023-04-14T06:59:55.540Z,28.84
2023-04-14T07:00:55.588Z,27.90
2023-04-14T07:01:55.599Z,25.09
2023-04-14T07:02:55.821Z,26.44
2023-04-14T07:03:56.573Z,29.20
2023-04-14T07:04:55.717Z,28.78
2023-04-14T07:05:55.677Z,33.47
2023-04-14T07:06:55.731Z,32.96
2023-04-14T07:07:55.793Z,38.75
2023-04-14T07:08:55.764Z,40.55
2023-04-14T07:09:55.944Z,43.56
2023-04-14T07:10:55.891Z,43.71
2023-04-14T07:11:55.934Z,45.55
2023-04-14T07:12:56.492Z,46.05
2023-04-14T07:13:55.988Z,46.37
2023-04-14T07:14:56.009Z,44.87
2023-04-14T07:15:56.100Z,46.18
2023-04-14T07:16:56.053Z,48.26
2023-04-14T07:17:58.564Z,49.00
2023-04-14T07:18:56.065Z,53.96
2023-04-14T07:19:56.067Z,57.54
2023-04-14T07:20:56.108Z,52.40
2023-04-14T07:21:56.113Z,53.72
2023-04-14T07:22:56.062Z,52.93
2023-04-14T07:23:56.043Z,58.04
2023-04-14T07:24:56.039Z,54.69
2023-04-14T07:25:56.063Z,57.72
2023-04-14T07:26:56.046Z,57.47
2023-04-14T07:28:03.018Z,56.58
2023-04-14T07:28:57.060Z,56.97
2023-04-14T07:29:56.092Z,57.87
2023-04-14T07:30:55.989Z,58.15
2023-04-14T07:31:55.954Z,62.12
2023-04-14T07:32:55.992Z,40.28
2023-04-14T07:33:55.964Z,25.00
2023-04-14T07:34:57.771Z,28.20
2023-04-14T07:36:02.355Z,30.79
2023-04-14T07:36:57.342Z,31.20
2023-04-14T07:38:02.775Z,31.76
2023-04-14T07:38:57.589Z,31.26
2023-04-14T07:39:56.019Z,31.58
2023-04-14T07:40:55.928Z,31.87
2023-04-14T07:41:55.961Z,27.06
2023-04-14T07:42:55.943Z,29.93
2023-04-14T07:43:55.942Z,28.74
2023-04-14T07:44:55.953Z,25.62
2023-04-14T07:45:55.950Z,30.05
2023-04-14T07:46:55.869Z,30.83
2023-04-14T07:47:57.656Z,30.97
2023-04-14T07:48:55.853Z,30.94
2023-04-14T07:49:55.920Z,36.85
2023-04-14T07:50:55.886Z,36.98
2023-04-14T07:51:55.921Z,36.88
2023-04-14T07:52:55.884Z,40.94
2023-04-14T07:53:56.164Z,48.03
2023-04-14T07:54:56.013Z,44.47
2023-04-14T07:55:56.044Z,42.93
2023-04-14T07:56:56.045Z,43.06
2023-04-14T07:57:56.127Z,40.57
2023-04-14T07:58:56.135Z,43.77
2023-04-14T07:59:56.268Z,40.61
2023-04-14T08:00:56.266Z,36.50
2023-04-14T08:01:56.462Z,39.52
2023-04-14T08:02:56.493Z,36.61
2023-04-14T08:03:56.765Z,34.09
2023-04-14T08:04:56.494Z,34.72
2023-04-14T08:05:56.582Z,35.61
2023-04-14T08:06:56.555Z,32.77
2023-04-14T08:07:56.568Z,31.89
2023-04-14T08:08:56.763Z,28.30
2023-04-14T08:09:56.638Z,26.54
2023-04-14T08:10:56.681Z,25.20
2023-04-14T08:11:56.725Z,25.00
2023-04-14T08:12:56.902Z,26.93
2023-04-14T08:13:56.966Z,25.78
2023-04-14T08:14:56.852Z,27.16
2023-04-14T08:15:56.987Z,26.18
2023-04-14T08:16:57.803Z,27.89
2023-04-14T08:17:57.024Z,27.48
2023-04-14T08:18:58.024Z,28.30
2023-04-14T08:19:57.102Z,26.53
2023-04-14T08:20:57.221Z,26.81
2023-04-14T08:21:57.327Z,26.54
2023-04-14T08:22:57.217Z,27.25
2023-04-14T08:23:57.258Z,25.00
2023-04-14T08:24:57.333Z,28.09
2023-04-14T08:25:57.387Z,36.48
2023-04-14T08:26:57.374Z,36.99
2023-04-14T08:27:57.484Z,40.19
2023-04-14T08:28:57.799Z,37.71
2023-04-14T08:29:57.538Z,32.85
2023-04-14T08:30:58.303Z,35.33
2023-04-14T08:31:57.554Z,35.22
2023-04-14T08:32:59.221Z,38.92
2023-04-14T08:33:57.713Z,45.71
2023-04-14T08:35:38.397Z,32.55
2023-04-14T08:35:59.690Z,32.77
2023-04-14T08:36:57.565Z,32.91
2023-04-14T08:37:57.626Z,26.17
2023-04-14T08:38:57.624Z,26.76
2023-04-14T08:39:57.583Z,19.27
2023-04-14T08:40:57.555Z,27.61
2023-04-14T08:41:57.551Z,26.67
2023-04-14T08:42:57.560Z,26.89
2023-04-14T08:43:57.579Z,26.44
2023-04-14T08:44:57.584Z,27.16
2023-04-14T08:45:57.571Z,25.87
2023-04-14T08:46:57.498Z,27.23
2023-04-14T08:47:57.524Z,26.70
2023-04-14T08:48:57.590Z,27.68
2023-04-14T08:49:57.504Z,28.61
2023-04-14T08:50:57.486Z,26.49
2023-04-14T08:51:57.436Z,27.46
2023-04-14T08:52:57.568Z,28.55
2023-04-14T08:53:57.437Z,27.02
2023-04-14T08:54:57.488Z,26.26
2023-04-14T08:55:58.277Z,29.91
2023-04-14T08:56:57.415Z,30.81
2023-04-14T08:57:57.373Z,27.90
2023-04-14T08:58:57.483Z,25.69
2023-04-14T08:59:57.369Z,30.35
2023-04-14T09:00:57.481Z,29.35
2023-04-14T09:01:57.689Z,26.03
2023-04-14T09:02:57.545Z,25.01
2023-04-14T09:03:57.992Z,28.51
2023-04-14T09:04:57.576Z,27.97
2023-04-14T09:05:57.379Z,28.45
2023-04-14T09:06:57.426Z,27.37
2023-04-14T09:07:57.382Z,26.59
2023-04-14T09:08:57.448Z,27.85
2023-04-14T09:09:57.347Z,26.22
2023-04-14T09:10:57.353Z,26.50
2023-04-14T09:11:57.376Z,25.00
2023-04-14T09:12:57.308Z,26.84
2023-04-14T09:13:57.317Z,27.02
2023-04-14T09:14:57.324Z,32.43
2023-04-14T09:15:57.331Z,30.76
2023-04-14T09:16:57.323Z,28.98
2023-04-14T09:17:57.448Z,29.76
2023-04-14T09:18:58.042Z,31.97
2023-04-14T09:20:34.487Z,32.08
2023-04-14T09:21:49.807Z,32.35
2023-04-14T09:21:58.386Z,32.63
2023-04-14T09:22:57.224Z,34.51
2023-04-14T09:23:57.293Z,35.42
2023-04-14T09:24:57.322Z,39.44
2023-04-14T09:25:57.240Z,39.71
2023-04-14T09:26:57.250Z,37.70
2023-04-14T09:27:57.273Z,37.99
2023-04-14T09:28:57.466Z,39.61
2023-04-14T09:29:57.189Z,40.26
2023-04-14T09:30:57.226Z,42.45
2023-04-14T09:31:57.244Z,47.94
2023-04-14T09:32:57.254Z,44.88
2023-04-14T09:33:57.187Z,41.44
2023-04-14T09:34:58.477Z,28.08
2023-04-14T09:35:57.155Z,25.00
2023-04-14T09:36:57.167Z,37.72
2023-04-14T09:37:57.131Z,45.83
2023-04-14T09:38:57.129Z,44.82
2023-04-14T09:39:57.181Z,51.08
2023-04-14T09:40:57.239Z,57.03
2023-04-14T09:41:57.261Z,57.35
2023-04-14T09:42:57.149Z,57.27
2023-04-14T09:43:57.109Z,56.55
2023-04-14T09:44:57.113Z,61.38
2023-04-14T09:45:57.147Z,58.54
2023-04-14T09:46:58.059Z,62.22
2023-04-14T09:47:57.311Z,64.01
2023-04-14T09:48:57.150Z,68.04
2023-04-14T09:49:57.356Z,67.53
2023-04-14T09:50:57.323Z,69.20
2023-04-14T09:51:57.310Z,71.87
2023-04-14T09:52:57.392Z,75.00
2023-04-14T09:53:57.425Z,77.56
2023-04-14T09:54:57.481Z,75.00
2023-04-14T09:55:57.564Z,76.86
2023-04-14T09:56:57.564Z,75.78
2023-04-14T09:57:57.628Z,76.16
2023-04-14T09:58:57.628Z,80.35
2023-04-14T09:59:57.687Z,78.77
2023-04-14T10:00:58.469Z,77.60
2023-04-14T10:01:57.844Z,74.96
2023-04-14T10:02:58.131Z,77.75
2023-04-14T10:03:57.808Z,76.82
2023-04-14T10:04:57.917Z,76.28
2023-04-14T10:05:57.865Z,77.78
2023-04-14T10:06:57.922Z,74.87
2023-04-14T10:07:57.929Z,76.94
2023-04-14T10:08:57.998Z,79.16
2023-04-14T10:09:58.075Z,78.49
2023-04-14T10:10:58.093Z,81.36
2023-04-14T10:11:58.082Z,78.20
2023-04-14T10:12:58.088Z,77.25
2023-04-14T10:13:58.199Z,80.02
2023-04-14T10:14:58.848Z,79.02
2023-04-14T10:15:58.256Z,82.46
2023-04-14T10:16:58.277Z,80.69
2023-04-14T10:17:58.277Z,81.22
2023-04-14T10:19:00.501Z,84.39
2023-04-14T10:19:58.386Z,81.44
2023-04-14T10:20:58.370Z,81.32
2023-04-14T10:21:58.394Z,78.02
2023-04-14T10:22:58.409Z,73.01
2023-04-14T10:23:58.502Z,75.31
2023-04-14T10:24:58.459Z,74.06
2023-04-14T10:25:58.434Z,75.27
2023-04-14T10:26:58.474Z,62.71
2023-04-14T10:27:58.555Z,51.92
2023-04-14T10:28:58.630Z,47.94
2023-04-14T10:29:58.617Z,34.05
2023-04-14T10:30:58.625Z,35.91
2023-04-14T10:31:58.644Z,26.48
2023-04-14T10:32:58.931Z,26.18
2023-04-14T10:33:58.623Z,27.34
2023-04-14T10:34:58.696Z,27.22
2023-04-14T10:35:58.753Z,25.00
2023-04-14T10:36:58.690Z,25.00
2023-04-14T10:37:58.776Z,30.87
2023-04-14T10:38:59.353Z,26.16
2023-04-14T10:39:59.408Z,26.49
2023-04-14T10:40:58.887Z,26.85
2023-04-14T10:41:58.979Z,26.32
2023-04-14T10:42:59.050Z,25.04
2023-04-14T10:43:59.055Z,25.95
2023-04-14T10:44:59.108Z,28.82
2023-04-14T10:45:59.192Z,25.00
2023-04-14T10:46:59.217Z,27.15
2023-04-14T10:47:59.208Z,28.35
2023-04-14T10:49:00.019Z,24.85
2023-04-14T10:49:59.340Z,28.98
2023-04-14T10:50:59.424Z,38.11
2023-04-14T10:51:59.522Z,41.85
2023-04-14T10:52:59.499Z,36.19
2023-04-14T10:53:59.544Z,37.57
2023-04-14T10:54:59.682Z,23.83
2023-04-14T10:55:59.707Z,38.12
2023-04-14T10:56:59.713Z,49.44
2023-04-14T10:57:59.781Z,65.28
2023-04-14T10:58:59.915Z,92.38
2023-04-14T10:59:59.866Z,79.74
2023-04-14T11:01:00.248Z,72.01
2023-04-14T11:02:00.306Z,70.49
2023-04-14T11:03:00.568Z,75.11
2023-04-14T11:04:00.391Z,65.48
2023-04-14T11:05:00.201Z,64.86
2023-04-14T11:06:00.293Z,55.98
2023-04-14T11:07:00.280Z,46.48
2023-04-14T11:08:02.459Z,41.54
2023-04-14T11:09:01.199Z,31.22
2023-04-14T11:10:00.438Z,53.86
2023-04-14T11:11:00.350Z,42.74
2023-04-14T11:12:00.534Z,56.11
2023-04-14T11:13:00.352Z,48.33
2023-04-14T11:15:19.211Z,25.00
2023-04-14T11:16:19.208Z,25.00
2023-04-14T11:17:19.257Z,25.00
2023-04-14T11:18:19.474Z,25.00
2023-04-14T11:19:19.404Z,25.00
2023-04-14T11:20:19.226Z,25.00
2023-04-14T11:21:19.379Z,27.87
2023-04-14T11:22:19.152Z,27.06
2023-04-14T11:23:19.122Z,28.99
2023-04-14T11:24:19.193Z,27.52
2023-04-14T11:25:20.695Z,29.95
2023-04-14T11:26:19.113Z,30.09
2023-04-14T11:27:19.070Z,30.02
2023-04-14T11:28:19.091Z,23.88
2023-04-14T11:29:19.157Z,15.03
2023-04-14T11:30:19.074Z,14.95
2023-04-14T11:31:20.914Z,26.97
2023-04-14T11:32:19.110Z,27.29
2023-04-14T11:33:19.094Z,25.88
2023-04-14T11:34:19.101Z,12.16
2023-04-14T11:35:19.041Z,12.85
2023-04-14T11:36:19.038Z,6.23
2023-04-14T11:37:20.232Z,25.00
2023-04-14T11:38:19.019Z,25.42
2023-04-14T11:39:19.023Z,25.67
2023-04-14T11:40:19.040Z,29.19
2023-04-14T11:41:18.984Z,25.94
2023-04-14T11:42:18.998Z,24.19
2023-04-14T11:43:20.178Z,27.66
2023-04-14T11:44:19.171Z,27.04
2023-04-14T11:45:19.100Z,40.52
2023-04-14T11:46:19.121Z,32.56
2023-04-14T11:47:19.138Z,26.11
2023-04-14T11:48:19.192Z,28.29
2023-04-14T11:49:20.552Z,24.61
2023-04-14T11:50:19.491Z,30.33
2023-04-14T11:51:19.468Z,50.55
2023-04-14T11:52:19.998Z,38.37
2023-04-14T11:53:19.505Z,54.59
2023-04-14T11:54:19.573Z,72.75
2023-04-14T11:55:19.550Z,75.86
2023-04-14T11:56:19.565Z,79.69
2023-04-14T11:57:19.589Z,80.32
2023-04-14T11:58:19.721Z,84.07
2023-04-14T11:59:19.693Z,85.94
2023-04-14T12:00:19.702Z,84.74
2023-04-14T12:01:19.788Z,83.09
2023-04-14T12:02:19.927Z,85.35
2023-04-14T12:03:19.989Z,87.08
2023-04-14T12:04:20.011Z,86.98
2023-04-14T12:05:19.864Z,94.37
2023-04-14T12:06:19.849Z,97.58
2023-04-14T12:07:19.791Z,98.75
2023-04-14T12:08:19.780Z,98.10
2023-04-14T12:09:19.796Z,100.65
2023-04-14T12:10:19.833Z,95.55
2023-04-14T12:11:19.815Z,99.71
2023-04-14T12:12:19.805Z,98.40
2023-04-14T12:13:19.808Z,101.21
2023-04-14T12:14:19.810Z,100.22
2023-04-14T12:15:19.834Z,100.12
2023-04-14T12:16:19.865Z,103.90
2023-04-14T12:17:19.883Z,97.46
2023-04-14T12:19:19.929Z,102.29
2023-04-14T12:20:19.858Z,101.44
2023-04-14T12:21:19.865Z,103.73
2023-04-14T12:22:19.902Z,103.63
2023-04-14T12:23:19.902Z,105.59
2023-04-14T12:24:19.942Z,107.24
2023-04-14T12:25:19.872Z,104.02
2023-04-14T12:26:19.867Z,107.52
2023-04-14T12:27:19.957Z,102.92
2023-04-14T12:28:19.899Z,103.12
2023-04-14T12:29:19.933Z,106.56
2023-04-14T12:30:19.937Z,108.80
2023-04-14T12:31:20.069Z,108.89
2023-04-14T12:32:19.956Z,108.35
2023-04-14T12:33:19.923Z,111.25
2023-04-14T12:34:19.945Z,110.77
2023-04-14T12:35:19.963Z,109.95
2023-04-14T12:36:20.366Z,111.51
2023-04-14T12:37:20.065Z,107.60
2023-04-14T12:38:19.988Z,112.42
2023-04-14T12:39:20.071Z,108.95
2023-04-14T12:40:20.087Z,110.86
2023-04-14T12:41:20.108Z,112.20
2023-04-14T12:42:20.141Z,112.34
2023-04-14T12:43:20.176Z,111.82
2023-04-14T12:44:20.218Z,112.39
2023-04-14T12:45:20.213Z,112.09
2023-04-14T12:46:20.357Z,114.77
2023-04-14T12:47:20.307Z,114.23
2023-04-14T12:48:20.211Z,115.10
2023-04-14T12:49:20.220Z,115.80
2023-04-14T12:50:20.233Z,116.19
2023-04-14T12:51:20.227Z,111.67
2023-04-14T12:52:20.288Z,115.20